Flight Briefing for CPX797

Departure Arrival
Miami International Airport (KMIA)
Click to view FAA NOTAMS
Arturo Merino Benitez International Airport (SCEL)
Click to view FAA NOTAMS
Departure Time Arrival Time
N/A N/A
Aircraft Distance
MD-11SF 3625nm
Departure METAR Arrival METAR
KMIA 180453Z 14007KT 10SM FEW025 SCT050 SCT065 24/23 A3005 RMK AO2 SLP176 T02440233 402830189 SCEL 180500Z 16005KT CAVOK 18/13 Q1013 NOSIG
Suggested Route
EONNS2 EONNS A509 URSUS UA301 UCA UG430 SIA UB510 COLBY UM795 ILTUR UM795 BOKAN UM795 LOBOT UM795 KUSKU UM795 PUPMI UM795 JCL UL302 TOY UV208 SIMOK SIMOK2C


View recent IFR Routes data
Notes



Charts and Procedures

Charts for KMIA
No chart available
Charts for SCEL
No chart available

Ventusky Weather